TAF Text Data
IDs:
Format:
Raw Decoded Include METAR

Data at: 0547 UTC 18 Oct 2018

KDMN 180453Z AUTO 10007KT 10SM OVC030 11/06 A3033 RMK AO2 SLP239 T01110056

KDMN 180538Z 1806/1906 09010KT P6SM FEW020 OVC030
  FM180900 07015KT P6SM BKN025 OVC035
  FM181600 09010KT P6SM OVC035
  FM182100 11010KT P6SM SCT035 BKN050